createdAt,value
2018-09-05T00:02:25.958Z,49.30
2018-09-05T00:04:55.518Z,50.20
2018-09-05T00:07:24.215Z,56.53
2018-09-05T00:09:55.598Z,51.17
2018-09-05T00:12:24.171Z,59.43
2018-09-05T00:14:52.755Z,56.83
2018-09-05T00:17:21.408Z,44.93
2018-09-05T00:19:49.943Z,57.17
2018-09-05T00:22:18.620Z,50.60
2018-09-05T00:24:47.369Z,46.70
2018-09-05T00:27:16.254Z,51.53
2018-09-05T00:29:45.495Z,46.17
2018-09-05T00:32:14.044Z,43.80
2018-09-05T00:34:42.615Z,50.33
2018-09-05T00:37:11.926Z,43.93
2018-09-05T00:39:40.503Z,50.03
2018-09-05T00:42:09.082Z,50.43
2018-09-05T00:44:37.620Z,52.33
2018-09-05T00:47:06.211Z,54.37
2018-09-05T00:49:34.928Z,52.67
2018-09-05T00:52:03.474Z,50.47
2018-09-05T00:54:32.079Z,58.03
2018-09-05T00:57:00.611Z,59.20
2018-09-05T00:59:29.201Z,75.03
2018-09-05T01:01:57.759Z,80.93
2018-09-05T01:04:26.287Z,62.00
2018-09-05T01:06:55.120Z,54.17
2018-09-05T01:09:23.644Z,48.53
2018-09-05T01:11:53.135Z,50.40
2018-09-05T01:14:21.629Z,51.07
2018-09-05T01:16:50.879Z,59.43
2018-09-05T01:19:19.413Z,43.30
2018-09-05T01:21:48.926Z,44.37
2018-09-05T01:24:18.303Z,49.10
2018-09-05T01:26:47.667Z,42.13
2018-09-05T01:29:16.192Z,46.77
2018-09-05T01:31:44.808Z,41.63
2018-09-05T01:34:14.002Z,39.47
2018-09-05T01:36:42.527Z,47.23
2018-09-05T01:39:11.179Z,45.03
2018-09-05T01:41:39.801Z,50.27
2018-09-05T01:44:09.348Z,52.47
2018-09-05T01:46:37.823Z,51.83
2018-09-05T01:49:07.143Z,58.93
2018-09-05T01:51:36.121Z,63.73
2018-09-05T01:54:05.879Z,47.63
2018-09-05T01:56:34.407Z,45.43
2018-09-05T01:59:02.939Z,43.57
2018-09-05T02:01:31.494Z,43.17
2018-09-05T02:04:00.596Z,44.13
2018-09-05T02:06:29.201Z,45.13
2018-09-05T02:08:57.722Z,44.20
2018-09-05T02:11:26.831Z,49.53
2018-09-05T02:13:55.444Z,45.73
2018-09-05T02:16:23.986Z,46.93
2018-09-05T02:18:53.236Z,43.93
2018-09-05T02:21:21.805Z,40.20
2018-09-05T02:23:50.310Z,39.27
2018-09-05T02:26:18.919Z,55.43
2018-09-05T02:28:47.463Z,51.97
2018-09-05T02:31:16.039Z,62.70
2018-09-05T02:33:44.567Z,59.80
2018-09-05T02:36:13.172Z,55.80
2018-09-05T02:38:42.914Z,42.50
2018-09-05T02:41:11.465Z,42.07
2018-09-05T02:43:45.204Z,39.77
2018-09-05T02:46:13.812Z,40.73
2018-09-05T02:48:42.406Z,39.13
2018-09-05T02:51:11.019Z,39.50
2018-09-05T02:53:39.540Z,48.77
2018-09-05T02:56:08.115Z,39.53
2018-09-05T02:58:36.662Z,46.90
2018-09-05T03:01:05.369Z,49.13
2018-09-05T03:03:33.898Z,43.20
2018-09-05T03:06:02.472Z,43.80
2018-09-05T03:08:31.014Z,40.80
2018-09-05T03:10:59.604Z,41.50
2018-09-05T03:13:28.079Z,38.70
2018-09-05T03:15:56.833Z,37.80
2018-09-05T03:18:25.332Z,40.87
2018-09-05T03:20:53.892Z,38.67
2018-09-05T03:23:23.088Z,36.77
2018-09-05T03:25:51.648Z,42.47
2018-09-05T03:28:20.895Z,35.70
2018-09-05T03:30:49.452Z,42.03
2018-09-05T03:33:18.061Z,44.53
2018-09-05T03:35:46.608Z,41.83
2018-09-05T03:38:15.121Z,37.70
2018-09-05T03:40:43.741Z,43.97
2018-09-05T03:43:12.256Z,41.73
2018-09-05T03:45:40.863Z,36.43
2018-09-05T03:48:09.423Z,39.00
2018-09-05T03:50:38.047Z,39.03
2018-09-05T03:53:06.546Z,36.50
2018-09-05T03:55:35.120Z,43.27
2018-09-05T03:58:03.730Z,36.13
2018-09-05T04:00:35.145Z,42.85
2018-09-05T04:03:04.600Z,38.53
2018-09-05T04:05:33.240Z,31.47
2018-09-05T04:08:02.344Z,36.37
2018-09-05T04:10:31.011Z,36.77
2018-09-05T04:12:59.640Z,40.27
2018-09-05T04:15:28.364Z,43.80
2018-09-05T04:17:56.832Z,42.27
2018-09-05T04:20:25.349Z,46.43
2018-09-05T04:22:53.839Z,60.80
2018-09-05T04:25:22.719Z,47.43
2018-09-05T04:27:51.209Z,48.50
2018-09-05T04:30:19.877Z,41.13
2018-09-05T04:32:48.353Z,42.07
2018-09-05T04:35:16.914Z,43.20
2018-09-05T04:37:45.482Z,34.83
2018-09-05T04:40:14.125Z,39.40
2018-09-05T04:42:42.749Z,36.33
2018-09-05T04:45:11.351Z,36.60
2018-09-05T04:47:39.888Z,36.77
2018-09-05T04:50:08.511Z,36.17
2018-09-05T04:52:37.123Z,35.53
2018-09-05T04:55:06.238Z,35.87
2018-09-05T04:57:34.873Z,32.30
2018-09-05T05:00:03.539Z,39.73
2018-09-05T05:02:32.255Z,36.13
2018-09-05T05:05:01.765Z,37.37
2018-09-05T05:07:30.314Z,38.67
2018-09-05T05:09:58.853Z,40.97
2018-09-05T05:12:27.396Z,45.47
2018-09-05T05:14:56.026Z,46.60
2018-09-05T05:17:24.611Z,33.90
2018-09-05T05:19:53.125Z,38.67
2018-09-05T05:22:21.675Z,35.80
2018-09-05T05:24:50.154Z,32.23
2018-09-05T05:27:18.794Z,36.33
2018-09-05T05:29:47.329Z,35.53
2018-09-05T05:32:15.866Z,32.90
2018-09-05T05:34:44.501Z,36.23
2018-09-05T05:37:13.142Z,33.17
2018-09-05T05:39:41.701Z,31.70
2018-09-05T05:42:10.308Z,30.57
2018-09-05T05:44:38.877Z,32.07
2018-09-05T05:47:07.456Z,31.43
2018-09-05T05:49:36.060Z,31.33
2018-09-05T05:52:04.602Z,32.87
2018-09-05T05:54:33.187Z,29.77
2018-09-05T05:57:01.805Z,34.50
2018-09-05T05:59:30.600Z,26.30
2018-09-05T06:01:59.327Z,34.30
2018-09-05T06:04:27.796Z,30.50
2018-09-05T06:06:57.039Z,33.30
2018-09-05T06:09:25.536Z,33.60
2018-09-05T06:11:54.103Z,30.10
2018-09-05T06:14:22.952Z,33.63
2018-09-05T06:16:51.454Z,33.47
2018-09-05T06:19:20.024Z,31.37
2018-09-05T06:21:48.675Z,36.03
2018-09-05T06:24:17.352Z,28.60
2018-09-05T06:26:45.895Z,31.13
2018-09-05T06:29:14.487Z,33.13
2018-09-05T06:31:43.115Z,29.40
2018-09-05T06:34:11.764Z,28.57
2018-09-05T06:36:40.251Z,27.20
2018-09-05T06:39:10.124Z,26.27
2018-09-05T06:41:38.956Z,27.07
2018-09-05T06:44:07.762Z,30.77
2018-09-05T06:46:36.261Z,27.77
2018-09-05T06:49:04.795Z,26.83
2018-09-05T06:51:33.390Z,26.73
2018-09-05T06:54:01.928Z,23.80
2018-09-05T06:56:30.520Z,28.63
2018-09-05T06:58:59.113Z,24.83
2018-09-05T07:01:27.699Z,27.10
2018-09-05T07:03:56.381Z,23.53
2018-09-05T07:06:24.935Z,23.33
2018-09-05T07:08:53.560Z,22.57
2018-09-05T07:11:22.071Z,23.07
2018-09-05T07:13:50.664Z,27.03
2018-09-05T07:16:19.352Z,20.63
2018-09-05T07:18:48.055Z,18.23
2018-09-05T07:21:16.712Z,19.83
2018-09-05T07:23:45.308Z,22.73
2018-09-05T07:26:13.850Z,25.40
2018-09-05T07:28:42.441Z,24.52
2018-09-05T07:31:11.056Z,16.73
2018-09-05T07:33:39.568Z,17.73
2018-09-05T07:36:08.126Z,21.12
2018-09-05T07:38:36.823Z,19.57
2018-09-05T07:41:05.734Z,22.85
2018-09-05T07:43:34.292Z,22.58
2018-09-05T07:46:02.858Z,22.63
2018-09-05T07:48:31.458Z,24.90
2018-09-05T07:51:00.068Z,23.37
2018-09-05T07:53:28.545Z,18.57
2018-09-05T07:55:57.156Z,20.80
2018-09-05T07:58:25.841Z,20.00
2018-09-05T08:00:54.362Z,22.10
2018-09-05T08:03:23.106Z,18.37
2018-09-05T08:05:51.844Z,18.90
2018-09-05T08:08:20.411Z,18.95
2018-09-05T08:10:49.053Z,17.42
2018-09-05T08:13:17.935Z,17.35
2018-09-05T08:15:46.540Z,18.25
2018-09-05T08:18:15.121Z,22.70
2018-09-05T08:20:45.090Z,18.90
2018-09-05T08:23:13.961Z,24.43
2018-09-05T08:25:42.514Z,16.93
2018-09-05T08:28:11.067Z,20.23
2018-09-05T08:30:39.595Z,18.32
2018-09-05T08:33:08.267Z,20.02
2018-09-05T08:35:37.058Z,17.67
2018-09-05T08:38:05.411Z,19.32
2018-09-05T08:40:34.044Z,20.37
2018-09-05T08:43:02.699Z,16.95
2018-09-05T08:45:31.546Z,19.65
2018-09-05T08:48:00.050Z,17.42
2018-09-05T08:50:28.653Z,15.60
2018-09-05T08:52:57.223Z,15.45
2018-09-05T08:55:25.867Z,18.55
2018-09-05T08:57:54.478Z,18.57
2018-09-05T09:00:23.637Z,16.67
2018-09-05T09:02:52.224Z,21.25
2018-09-05T09:05:20.773Z,15.97
2018-09-05T09:07:49.357Z,19.75
2018-09-05T09:10:18.018Z,17.05
2018-09-05T09:12:47.115Z,17.17
2018-09-05T09:15:15.727Z,20.53
2018-09-05T09:17:44.318Z,15.35
2018-09-05T09:20:12.931Z,18.07
2018-09-05T09:22:41.530Z,16.77
2018-09-05T09:25:09.940Z,17.00
2018-09-05T09:27:38.640Z,17.25
2018-09-05T09:30:07.801Z,16.78
2018-09-05T09:32:36.513Z,14.55
2018-09-05T09:35:05.136Z,16.75
2018-09-05T09:37:33.691Z,14.53
2018-09-05T09:40:03.152Z,16.87
2018-09-05T09:42:31.900Z,12.07
2018-09-05T09:45:00.451Z,13.65
2018-09-05T09:47:29.051Z,17.05
2018-09-05T09:49:57.637Z,15.78
2018-09-05T09:52:26.260Z,15.38
2018-09-05T09:54:54.826Z,16.73
2018-09-05T09:57:23.431Z,15.83
2018-09-05T09:59:51.979Z,16.35
2018-09-05T10:02:25.826Z,16.85
2018-09-05T10:04:59.758Z,12.37
2018-09-05T10:07:33.750Z,13.05
2018-09-05T10:11:07.267Z,19.42
2018-09-05T10:13:41.843Z,13.98
2018-09-05T10:16:15.439Z,15.23
2018-09-05T10:18:46.587Z,16.77
2018-09-05T10:21:15.906Z,16.15
2018-09-05T10:23:45.356Z,15.08
2018-09-05T10:26:14.623Z,16.47
2018-09-05T10:28:43.159Z,16.75
2018-09-05T10:31:11.739Z,16.73
2018-09-05T10:33:40.287Z,14.83
2018-09-05T10:36:08.837Z,14.50
2018-09-05T10:38:38.190Z,14.83
2018-09-05T10:41:06.752Z,18.98
2018-09-05T10:43:35.273Z,13.65
2018-09-05T10:46:03.929Z,13.90
2018-09-05T10:48:34.516Z,14.93
2018-09-05T10:51:03.066Z,15.80
2018-09-05T10:53:33.379Z,16.02
2018-09-05T10:56:02.184Z,14.80
2018-09-05T10:58:30.743Z,16.50
2018-09-05T11:00:59.359Z,17.60
2018-09-05T11:03:27.905Z,14.20
2018-09-05T11:05:56.892Z,16.80
2018-09-05T11:08:25.453Z,30.68
2018-09-05T11:10:54.111Z,18.12
2018-09-05T11:13:22.735Z,14.83
2018-09-05T11:15:51.284Z,26.45
2018-09-05T11:18:19.849Z,21.68
2018-09-05T11:20:49.136Z,22.22
2018-09-05T11:23:19.069Z,17.32
2018-09-05T11:25:47.706Z,14.83
2018-09-05T11:28:17.444Z,21.55
2018-09-05T11:30:46.584Z,36.85
2018-09-05T11:33:15.186Z,15.43
2018-09-05T11:35:43.743Z,14.18
2018-09-05T11:38:12.308Z,12.03
2018-09-05T11:40:40.946Z,13.47
2018-09-05T11:43:09.683Z,13.22
2018-09-05T11:45:38.222Z,16.95
2018-09-05T11:48:07.739Z,14.90
2018-09-05T11:50:36.318Z,15.03
2018-09-05T11:53:05.518Z,18.25
2018-09-05T11:55:34.144Z,18.05
2018-09-05T11:58:02.730Z,15.53
2018-09-05T12:00:31.338Z,17.60
2018-09-05T12:02:59.876Z,15.25
2018-09-05T12:05:28.478Z,14.63
2018-09-05T12:07:57.004Z,18.77
2018-09-05T12:10:25.597Z,18.03
2018-09-05T12:12:55.726Z,16.15
2018-09-05T12:15:24.302Z,17.33
2018-09-05T12:17:52.892Z,16.07
2018-09-05T12:20:21.508Z,13.63
2018-09-05T12:22:50.164Z,19.82
2018-09-05T12:25:18.666Z,16.65
2018-09-05T12:27:47.304Z,16.05
2018-09-05T12:30:16.034Z,13.27
2018-09-05T12:32:44.600Z,13.43
2018-09-05T12:35:13.314Z,17.80
2018-09-05T12:37:41.828Z,18.10
2018-09-05T12:40:10.490Z,15.85
2018-09-05T12:42:39.107Z,16.20
2018-09-05T12:45:08.546Z,16.95
2018-09-05T12:47:37.167Z,16.27
2018-09-05T12:50:05.843Z,17.25
2018-09-05T12:52:34.357Z,17.32
2018-09-05T12:55:03.807Z,18.10
2018-09-05T12:57:32.343Z,18.92
2018-09-05T13:00:00.975Z,14.43
2018-09-05T13:02:29.601Z,21.50
2018-09-05T13:04:58.179Z,18.23
2018-09-05T13:07:26.803Z,18.07
2018-09-05T13:09:55.366Z,18.57
2018-09-05T13:12:24.025Z,16.32
2018-09-05T13:14:52.683Z,19.30
2018-09-05T13:17:21.244Z,15.63
2018-09-05T13:19:49.949Z,15.45
2018-09-05T13:22:18.563Z,15.95
2018-09-05T13:24:47.253Z,23.52
2018-09-05T13:27:17.977Z,18.10
2018-09-05T13:29:46.479Z,16.30
2018-09-05T13:32:15.296Z,21.45
2018-09-05T13:34:43.848Z,19.32
2018-09-05T13:37:12.427Z,14.93
2018-09-05T13:39:42.033Z,23.98
2018-09-05T13:42:10.713Z,16.10
2018-09-05T13:44:39.619Z,18.12
2018-09-05T13:47:08.134Z,16.93
2018-09-05T13:49:36.712Z,17.37
2018-09-05T13:52:06.576Z,18.25
2018-09-05T13:54:36.627Z,18.95
2018-09-05T13:57:05.219Z,22.40
2018-09-05T13:59:35.143Z,21.87
2018-09-05T14:02:03.726Z,18.12
2018-09-05T14:04:32.792Z,15.03
2018-09-05T14:07:01.447Z,22.55
2018-09-05T14:09:29.983Z,20.68
2018-09-05T14:11:58.600Z,18.23
2018-09-05T14:14:28.255Z,20.85
2018-09-05T14:16:56.775Z,19.60
2018-09-05T14:19:25.371Z,16.05
2018-09-05T14:21:53.909Z,17.05
2018-09-05T14:24:22.858Z,17.35
2018-09-05T14:26:51.482Z,16.60
2018-09-05T14:29:20.120Z,16.27
2018-09-05T14:31:48.663Z,17.35
2018-09-05T14:34:17.175Z,16.27
2018-09-05T14:36:45.773Z,20.40
2018-09-05T14:39:23.199Z,16.93
2018-09-05T14:41:51.935Z,14.13
2018-09-05T14:44:20.465Z,14.87
2018-09-05T14:49:38.232Z,16.57
2018-09-05T14:54:55.779Z,18.23
2018-09-05T15:00:13.264Z,17.52
2018-09-05T15:05:30.791Z,13.85
2018-09-05T15:10:48.515Z,18.32
2018-09-05T15:16:06.151Z,14.20
2018-09-05T15:21:23.609Z,18.02
2018-09-05T15:26:41.121Z,17.87
2018-09-05T15:31:58.665Z,19.17
2018-09-05T15:37:17.070Z,15.18
2018-09-05T15:42:34.636Z,16.85
2018-09-05T15:47:52.139Z,13.88
2018-09-05T15:53:10.426Z,18.37
2018-09-05T15:58:28.099Z,13.55
2018-09-05T16:03:45.680Z,12.33
2018-09-05T16:09:05.962Z,15.68
2018-09-05T16:14:23.451Z,15.70
2018-09-05T16:19:40.873Z,12.30
2018-09-05T16:24:58.335Z,13.10
2018-09-05T16:30:15.819Z,17.12
2018-09-05T16:35:33.899Z,15.72
2018-09-05T16:40:52.895Z,13.90
2018-09-05T16:46:11.157Z,15.60
2018-09-05T16:51:28.606Z,15.30
2018-09-05T16:56:46.982Z,14.47
2018-09-05T17:02:04.461Z,14.60
2018-09-05T17:07:21.976Z,12.00
2018-09-05T17:12:39.568Z,16.67
2018-09-05T17:17:57.147Z,15.83
2018-09-05T17:23:14.798Z,15.80
2018-09-05T17:28:33.005Z,15.93
2018-09-05T17:33:51.274Z,21.63
2018-09-05T17:39:10.318Z,18.83
2018-09-05T17:44:27.837Z,17.13
2018-09-05T17:49:45.307Z,22.63
2018-09-05T17:55:03.492Z,16.97
2018-09-05T18:00:21.052Z,18.10
2018-09-05T18:05:38.565Z,21.47
2018-09-05T18:10:56.801Z,16.23
2018-09-05T18:16:14.500Z,21.80
2018-09-05T18:21:31.914Z,21.67
2018-09-05T18:26:50.162Z,18.17
2018-09-05T18:32:07.681Z,20.70
2018-09-05T18:37:25.226Z,19.97
2018-09-05T18:42:43.514Z,23.77
2018-09-05T18:48:01.000Z,21.23
2018-09-05T18:53:19.087Z,20.07
2018-09-05T18:58:37.045Z,20.43
2018-09-05T19:03:54.604Z,23.67
2018-09-05T19:09:12.683Z,25.80
2018-09-05T19:14:30.171Z,23.17
2018-09-05T19:19:47.657Z,22.13
2018-09-05T19:25:05.228Z,23.67
2018-09-05T19:30:22.762Z,21.93
2018-09-05T19:35:41.467Z,26.90
2018-09-05T19:40:59.022Z,28.93
2018-09-05T19:46:16.577Z,26.53
2018-09-05T19:51:34.067Z,30.00
2018-09-05T19:56:52.271Z,24.40
2018-09-05T20:02:09.738Z,27.80
2018-09-05T20:07:27.292Z,26.30
2018-09-05T20:12:44.693Z,21.77
2018-09-05T20:18:02.187Z,24.00
2018-09-05T20:23:19.776Z,19.30
2018-09-05T20:28:37.855Z,20.60
2018-09-05T20:33:56.109Z,22.33
2018-09-05T20:39:13.653Z,20.13
2018-09-05T20:44:31.212Z,22.20
2018-09-05T20:49:48.725Z,27.43
2018-09-05T20:55:06.240Z,26.90
2018-09-05T21:00:23.803Z,25.67
2018-09-05T21:05:41.324Z,22.77
2018-09-05T21:10:58.799Z,23.73
2018-09-05T21:16:17.899Z,21.60
2018-09-05T21:21:36.011Z,21.53
2018-09-05T21:26:53.562Z,21.27
2018-09-05T21:32:11.788Z,22.90
2018-09-05T21:37:29.877Z,17.73
2018-09-05T21:42:47.323Z,16.77
2018-09-05T21:48:04.853Z,22.50
2018-09-05T21:53:22.357Z,32.67
2018-09-05T21:58:41.736Z,29.70
2018-09-05T22:03:59.960Z,30.53
2018-09-05T22:09:17.393Z,24.57
2018-09-05T22:14:35.582Z,27.20
2018-09-05T22:19:53.027Z,27.27
2018-09-05T22:25:10.973Z,26.20
2018-09-05T22:30:28.480Z,20.00
2018-09-05T22:35:46.911Z,18.53
2018-09-05T22:41:04.390Z,27.73
2018-09-05T22:47:35.013Z,20.27
2018-09-05T22:53:14.561Z,22.43
2018-09-05T22:58:44.373Z,24.90
2018-09-05T23:06:21.927Z,24.57
2018-09-05T23:11:52.530Z,24.30
2018-09-05T23:18:24.496Z,24.53
2018-09-05T23:30:06.329Z,25.30
